createdAt,value
2023-12-03T00:00:31.650Z,13.200000
2023-12-03T00:05:34.464Z,12.000000
2023-12-03T00:10:15.955Z,11.600000
2023-12-03T00:15:18.042Z,11.000000
2023-12-03T00:20:20.001Z,12.200000
2023-12-03T00:25:22.440Z,14.000000
2023-12-03T00:30:24.721Z,15.200000
2023-12-03T00:35:27.077Z,17.000000
2023-12-03T00:40:29.667Z,16.200000
2023-12-03T00:45:31.818Z,15.000000
2023-12-03T00:50:33.614Z,19.800000
2023-12-03T00:55:35.729Z,27.000000
2023-12-03T01:00:16.964Z,26.200000
2023-12-03T01:05:18.896Z,25.000000
2023-12-03T01:10:20.694Z,21.800000
2023-12-03T01:15:22.870Z,17.000000
2023-12-03T01:20:24.293Z,16.600000
2023-12-03T01:25:26.034Z,16.000000
2023-12-03T01:30:27.759Z,21.200000
2023-12-03T01:35:29.688Z,29.000000
2023-12-03T01:40:31.216Z,24.200000
2023-12-03T01:45:32.961Z,17.000000
2023-12-03T01:50:35.302Z,17.400000
2023-12-03T01:55:17.180Z,18.000000
2023-12-03T02:00:19.079Z,20.400000
2023-12-03T02:05:20.876Z,24.000000
2023-12-03T02:10:23.252Z,26.142857
2023-12-03T02:15:25.100Z,30.000000
2023-12-03T02:20:27.001Z,24.800000
2023-12-03T02:25:28.679Z,17.000000
2023-12-03T02:30:30.553Z,22.200000
2023-12-03T02:35:32.188Z,30.000000
2023-12-03T02:40:34.662Z,23.600000
2023-12-03T02:45:17.105Z,14.000000
2023-12-03T02:50:19.441Z,14.400000
2023-12-03T02:55:21.327Z,15.000000
2023-12-03T03:00:23.266Z,13.928571
2023-12-03T03:05:25.082Z,12.000000
2023-12-03T03:10:26.973Z,12.400000
2023-12-03T03:15:28.863Z,13.000000
2023-12-03T03:20:30.615Z,12.600000
2023-12-03T03:25:32.588Z,12.000000
2023-12-03T03:30:35.315Z,12.000000
2023-12-03T03:35:16.344Z,12.000000
2023-12-03T03:40:18.063Z,14.000000
2023-12-03T03:45:19.738Z,17.000000
2023-12-03T03:50:21.655Z,16.600000
2023-12-03T03:55:23.380Z,16.000000
2023-12-03T04:00:26.158Z,16.400000
2023-12-03T04:05:28.387Z,17.000000
2023-12-03T04:10:30.932Z,16.200000
2023-12-03T04:15:33.262Z,15.000000
2023-12-03T04:20:34.967Z,20.200000
2023-12-03T04:25:16.560Z,28.000000
2023-12-03T04:30:18.914Z,24.000000
2023-12-03T04:35:21.603Z,18.000000
2023-12-03T04:40:23.554Z,16.285714
2023-12-03T04:45:25.788Z,14.000000
2023-12-03T04:50:27.945Z,17.200000
2023-12-03T04:55:30.939Z,22.000000
2023-12-03T05:00:33.781Z,29.600000
2023-12-03T05:05:16.405Z,41.000000
2023-12-03T05:10:18.386Z,43.800000
2023-12-03T05:15:20.128Z,48.000000
2023-12-03T05:20:21.950Z,39.600000
2023-12-03T05:25:23.688Z,27.000000
2023-12-03T05:30:25.769Z,21.800000
2023-12-03T05:35:28.550Z,14.000000
2023-12-03T05:40:29.607Z,16.400000
2023-12-03T05:45:31.505Z,20.000000
2023-12-03T05:50:33.971Z,15.600000
2023-12-03T05:55:16.106Z,9.000000
2023-12-03T06:00:18.324Z,8.200000
2023-12-03T06:05:20.411Z,7.000000
2023-12-03T06:10:22.164Z,7.357143
2023-12-03T06:15:23.860Z,8.000000
2023-12-03T06:20:25.588Z,7.600000
2023-12-03T06:25:27.410Z,7.000000
2023-12-03T06:30:29.420Z,7.000000
2023-12-03T06:35:31.142Z,7.000000
2023-12-03T06:40:32.949Z,7.800000
2023-12-03T06:45:34.738Z,9.000000
2023-12-03T06:50:16.237Z,9.000000
2023-12-03T06:55:18.016Z,9.000000
2023-12-03T07:00:19.904Z,8.600000
2023-12-03T07:05:21.914Z,8.000000
2023-12-03T07:10:23.242Z,8.357143
2023-12-03T07:15:25.293Z,9.000000
2023-12-03T07:20:26.845Z,8.600000
2023-12-03T07:25:28.686Z,8.000000
2023-12-03T07:30:30.584Z,8.400000
2023-12-03T07:35:32.516Z,9.000000
2023-12-03T07:40:34.843Z,7.000000
2023-12-03T07:45:17.020Z,4.000000
2023-12-03T07:50:19.566Z,3.600000
2023-12-03T07:55:22.612Z,3.000000
2023-12-03T08:00:25.296Z,4.200000
2023-12-03T08:05:27.599Z,6.000000
2023-12-03T08:10:29.299Z,4.400000
2023-12-03T08:15:31.039Z,2.000000
2023-12-03T08:20:32.935Z,3.200000
2023-12-03T08:25:34.605Z,5.000000
2023-12-03T08:30:16.393Z,3.800000
2023-12-03T08:35:18.989Z,2.000000
2023-12-03T08:40:21.947Z,3.600000
2023-12-03T08:45:24.510Z,6.000000
2023-12-03T08:50:27.031Z,6.000000
2023-12-03T08:55:29.176Z,6.000000
2023-12-03T09:00:32.111Z,6.000000
2023-12-03T09:05:34.669Z,6.000000
2023-12-03T09:10:16.738Z,6.400000
2023-12-03T09:15:19.076Z,7.000000
2023-12-03T09:20:21.188Z,6.600000
2023-12-03T09:25:22.910Z,6.000000
2023-12-03T09:30:24.704Z,6.400000
2023-12-03T09:35:26.554Z,7.000000
2023-12-03T09:40:28.335Z,6.600000
2023-12-03T09:45:30.035Z,6.000000
2023-12-03T09:50:31.846Z,6.400000
2023-12-03T09:55:33.473Z,7.000000
2023-12-03T10:00:35.229Z,7.800000
2023-12-03T10:05:16.970Z,9.000000
2023-12-03T10:10:19.629Z,8.200000
2023-12-03T10:15:22.491Z,7.000000
2023-12-03T10:20:24.725Z,7.400000
2023-12-03T10:25:26.505Z,8.000000
2023-12-03T10:30:28.217Z,7.200000
2023-12-03T10:35:30.020Z,6.000000
2023-12-03T10:40:33.026Z,5.600000
2023-12-03T10:45:35.052Z,5.000000
2023-12-03T10:50:16.645Z,5.400000
2023-12-03T10:55:19.273Z,6.000000
2023-12-03T11:00:21.627Z,6.400000
2023-12-03T11:05:24.425Z,7.000000
2023-12-03T11:10:27.183Z,7.000000
2023-12-03T11:15:29.347Z,7.000000
2023-12-03T11:20:31.188Z,6.200000
2023-12-03T11:25:32.919Z,5.000000
2023-12-03T11:30:34.902Z,5.000000
2023-12-03T11:35:16.305Z,5.000000
2023-12-03T11:40:18.277Z,5.000000
2023-12-03T11:45:20.509Z,5.000000
2023-12-03T11:50:22.245Z,5.000000
2023-12-03T11:55:23.918Z,5.000000
2023-12-03T12:00:25.802Z,6.200000
2023-12-03T12:05:28.051Z,8.000000
2023-12-03T12:10:29.312Z,6.800000
2023-12-03T12:15:30.994Z,5.000000
2023-12-03T12:20:32.824Z,5.000000
2023-12-03T12:25:34.541Z,5.000000
2023-12-03T12:30:26.837Z,5.000000
2023-12-03T12:35:18.104Z,5.000000
2023-12-03T12:40:20.074Z,4.200000
2023-12-03T12:45:21.665Z,3.000000
2023-12-03T12:50:23.433Z,4.428571
2023-12-03T12:55:25.094Z,7.000000
2023-12-03T13:00:27.011Z,7.000000
2023-12-03T13:05:28.924Z,7.000000
2023-12-03T13:10:31.374Z,6.600000
2023-12-03T13:15:33.593Z,6.000000
2023-12-03T13:20:35.752Z,6.400000
2023-12-03T13:25:17.964Z,7.000000
2023-12-03T13:30:20.779Z,7.800000
2023-12-03T13:35:22.899Z,9.000000
2023-12-03T13:40:24.613Z,9.800000
2023-12-03T13:45:26.471Z,11.000000
2023-12-03T13:50:28.056Z,10.200000
2023-12-03T13:55:29.808Z,9.000000
2023-12-03T14:00:31.660Z,11.800000
2023-12-03T14:05:33.376Z,16.000000
2023-12-03T14:10:35.035Z,20.000000
2023-12-03T14:15:16.625Z,26.000000
2023-12-03T14:20:18.977Z,31.600000
2023-12-03T14:25:21.622Z,40.000000
2023-12-03T14:30:23.854Z,46.428571
2023-12-03T14:35:25.955Z,55.000000
2023-12-03T14:40:27.753Z,55.400000
2023-12-03T14:45:29.654Z,56.000000
2023-12-03T14:50:31.279Z,60.400000
2023-12-03T14:55:33.120Z,67.000000
2023-12-03T15:00:34.961Z,62.600000
2023-12-03T15:05:16.583Z,56.000000
2023-12-03T15:10:18.334Z,54.400000
2023-12-03T15:15:20.018Z,52.000000
2023-12-03T15:20:21.757Z,39.600000
2023-12-03T15:25:23.748Z,21.000000
2023-12-03T15:30:27.771Z,18.600000
2023-12-03T15:35:27.281Z,15.000000
2023-12-03T15:40:29.100Z,15.800000
2023-12-03T15:45:30.735Z,17.000000
2023-12-03T15:50:32.593Z,18.200000
2023-12-03T15:55:34.578Z,20.000000
2023-12-03T16:00:16.465Z,18.400000
2023-12-03T16:05:19.018Z,16.000000
2023-12-03T16:10:21.593Z,18.000000
2023-12-03T16:15:23.350Z,21.000000
2023-12-03T16:20:25.266Z,22.600000
2023-12-03T16:25:27.026Z,25.000000
2023-12-03T16:30:28.601Z,32.200000
2023-12-03T16:35:30.847Z,43.000000
2023-12-03T16:40:32.608Z,46.600000
2023-12-03T16:45:34.454Z,52.000000
2023-12-03T16:50:15.963Z,52.800000
2023-12-03T16:55:17.660Z,54.000000
2023-12-03T17:00:19.430Z,53.600000
2023-12-03T17:05:21.250Z,53.000000
2023-12-03T17:10:23.324Z,50.142857
2023-12-03T17:15:25.777Z,45.000000
2023-12-03T17:20:28.619Z,45.000000
2023-12-03T17:25:30.743Z,45.000000
2023-12-03T17:30:32.951Z,42.200000
2023-12-03T17:35:34.649Z,38.000000
2023-12-03T17:40:16.338Z,36.400000
2023-12-03T17:45:18.313Z,34.000000
2023-12-03T17:50:20.512Z,32.000000
2023-12-03T17:55:22.143Z,29.000000
2023-12-03T18:00:23.901Z,25.800000
2023-12-03T18:05:25.787Z,21.000000
2023-12-03T18:10:27.744Z,19.800000
2023-12-03T18:15:29.249Z,18.000000
2023-12-03T18:20:31.053Z,17.200000
2023-12-03T18:25:32.801Z,16.000000
2023-12-03T18:30:38.355Z,16.800000
2023-12-03T18:35:16.986Z,18.000000
2023-12-03T18:40:18.701Z,19.200000
2023-12-03T18:45:21.098Z,21.000000
2023-12-03T18:50:23.135Z,23.500000
2023-12-03T18:55:25.518Z,28.000000
2023-12-03T19:00:27.690Z,27.600000
2023-12-03T19:05:29.534Z,27.000000
2023-12-03T19:10:32.020Z,30.200000
2023-12-03T19:15:35.067Z,35.000000
2023-12-03T19:20:17.178Z,36.200000
2023-12-03T19:25:19.613Z,38.000000
2023-12-03T19:30:21.300Z,42.000000
2023-12-03T19:35:23.098Z,48.000000
2023-12-03T19:40:24.738Z,44.800000
2023-12-03T19:45:26.594Z,40.000000
2023-12-03T19:50:28.458Z,46.000000
2023-12-03T19:55:30.019Z,55.000000
2023-12-03T20:00:31.903Z,47.800000
2023-12-03T20:05:33.822Z,37.000000
2023-12-03T20:10:35.764Z,35.800000
2023-12-03T20:15:21.664Z,34.000000
2023-12-03T20:20:19.212Z,32.000000
2023-12-03T20:25:21.081Z,29.000000
2023-12-03T20:30:22.746Z,32.928571
2023-12-03T20:35:24.454Z,40.000000
2023-12-03T20:40:26.437Z,36.000000
2023-12-03T20:45:28.932Z,30.000000
2023-12-03T20:50:31.602Z,66.400000
2023-12-03T20:55:33.938Z,121.000000
2023-12-03T21:00:16.272Z,83.000000
2023-12-03T21:05:20.840Z,26.000000
2023-12-03T21:10:20.874Z,28.000000
2023-12-03T21:15:22.910Z,31.000000
2023-12-03T21:20:24.632Z,27.800000
2023-12-03T21:25:26.555Z,23.000000
2023-12-03T21:30:28.986Z,23.000000
2023-12-03T21:35:31.393Z,23.000000
2023-12-03T21:40:33.960Z,28.600000
2023-12-03T21:45:16.250Z,37.000000
2023-12-03T21:50:18.704Z,31.000000
2023-12-03T21:55:21.150Z,22.000000
2023-12-03T22:00:23.692Z,20.928571
2023-12-03T22:05:26.503Z,19.000000
2023-12-03T22:10:28.528Z,25.800000
2023-12-03T22:15:30.912Z,36.000000
2023-12-03T22:20:32.809Z,34.000000
2023-12-03T22:25:35.410Z,31.000000
2023-12-03T22:30:17.986Z,48.200000
2023-12-03T22:35:20.159Z,74.000000
2023-12-03T22:40:23.133Z,59.000000
2023-12-03T22:45:24.950Z,32.000000
2023-12-03T22:50:28.338Z,29.600000
2023-12-03T22:55:28.607Z,26.000000
2023-12-03T23:00:30.262Z,20.000000
2023-12-03T23:05:38.208Z,11.000000
2023-12-03T23:10:33.961Z,15.800000
2023-12-03T23:15:35.516Z,23.000000
2023-12-03T23:20:17.242Z,25.400000
2023-12-03T23:25:19.056Z,29.000000
2023-12-03T23:30:20.891Z,24.200000
2023-12-03T23:35:22.501Z,17.000000
2023-12-03T23:40:24.256Z,14.600000
2023-12-03T23:45:26.493Z,11.000000
2023-12-03T23:50:28.535Z,11.800000
2023-12-03T23:55:30.425Z,13.000000
